sensor_id;sensor_type;location;lat;lon;timestamp;pressure;altitude;pressure_sealevel;temperature;humidity
8039;BME280;4062;49.844;8.120;2023-04-01T00:00:18;97605.72;;;14.03;56.33
8039;BME280;4062;49.844;8.120;2023-04-01T00:02:22;97607.53;;;14.03;56.17
8039;BME280;4062;49.844;8.120;2023-04-01T00:04:24;97615.50;;;14.03;56.26
8039;BME280;4062;49.844;8.120;2023-04-01T00:06:25;97604.03;;;14.02;56.17
8039;BME280;4062;49.844;8.120;2023-04-01T00:08:27;97603.19;;;14.02;56.20
8039;BME280;4062;49.844;8.120;2023-04-01T00:10:29;97612.00;;;14.02;56.29
8039;BME280;4062;49.844;8.120;2023-04-01T00:12:31;97606.69;;;14.02;56.33
8039;BME280;4062;49.844;8.120;2023-04-01T00:14:32;97601.28;;;14.04;56.36
8039;BME280;4062;49.844;8.120;2023-04-01T00:16:34;97605.84;;;14.02;56.24
8039;BME280;4062;49.844;8.120;2023-04-01T00:18:35;97603.06;;;14.03;56.17
8039;BME280;4062;49.844;8.120;2023-04-01T00:20:37;97612.00;;;14.02;56.28
8039;BME280;4062;49.844;8.120;2023-04-01T00:22:39;97603.06;;;14.03;56.26
8039;BME280;4062;49.844;8.120;2023-04-01T00:24:40;97603.06;;;14.03;56.26
8039;BME280;4062;49.844;8.120;2023-04-01T00:26:42;97606.69;;;14.02;56.38
8039;BME280;4062;49.844;8.120;2023-04-01T00:28:46;97612.00;;;14.02;56.34
8039;BME280;4062;49.844;8.120;2023-04-01T00:30:48;97601.38;;;14.02;56.34
8039;BME280;4062;49.844;8.120;2023-04-01T00:32:53;97591.63;;;14.03;56.18
8039;BME280;4062;49.844;8.120;2023-04-01T00:34:55;97602.25;;;14.03;56.22
8039;BME280;4062;49.844;8.120;2023-04-01T00:36:57;97594.28;;;14.03;56.37
8039;BME280;4062;49.844;8.120;2023-04-01T00:38:59;97597.88;;;14.02;56.22
8039;BME280;4062;49.844;8.120;2023-04-01T00:41:01;97596.06;;;14.02;56.29
8039;BME280;4062;49.844;8.120;2023-04-01T00:43:08;97602.31;;;14.01;56.36
8039;BME280;4062;49.844;8.120;2023-04-01T00:45:34;97597.88;;;14.02;56.34
8039;BME280;4062;49.844;8.120;2023-04-01T00:47:36;97600.53;;;14.02;56.24
8039;BME280;4062;49.844;8.120;2023-04-01T00:49:40;97601.38;;;14.02;56.31
8039;BME280;4062;49.844;8.120;2023-04-01T00:51:46;97598.72;;;14.02;56.26
8039;BME280;4062;49.844;8.120;2023-04-01T00:53:55;97596.06;;;14.02;56.28
8039;BME280;4062;49.844;8.120;2023-04-01T00:56:33;97593.41;;;14.02;56.32
8039;BME280;4062;49.844;8.120;2023-04-01T00:58:40;97593.41;;;14.02;56.24
8039;BME280;4062;49.844;8.120;2023-04-01T01:00:49;97591.69;;;14.01;56.30
8039;BME280;4062;49.844;8.120;2023-04-01T01:02:52;97602.25;;;14.03;56.34
8039;BME280;4062;49.844;8.120;2023-04-01T01:04:54;97598.72;;;14.02;56.41
8039;BME280;4062;49.844;8.120;2023-04-01T01:07:02;97604.97;;;14.01;56.27
8039;BME280;4062;49.844;8.120;2023-04-01T01:14:32;97596.06;;;14.02;56.42
8039;BME280;4062;49.844;8.120;2023-04-01T01:16:45;97593.41;;;14.02;56.22
8039;BME280;4062;49.844;8.120;2023-04-01T01:21:29;97594.34;;;14.01;56.25
8039;BME280;4062;49.844;8.120;2023-04-01T01:26:31;97599.59;;;14.03;56.34
8039;BME280;4062;49.844;8.120;2023-04-01T01:30:59;97586.31;;;14.03;56.32
8039;BME280;4062;49.844;8.120;2023-04-01T01:35:55;97596.06;;;14.02;56.33
8039;BME280;4062;49.844;8.120;2023-04-01T01:38:12;97592.56;;;14.02;56.26
8039;BME280;4062;49.844;8.120;2023-04-01T01:40:24;97597.00;;;14.01;56.19
8039;BME280;4062;49.844;8.120;2023-04-01T01:42:28;97595.22;;;14.02;56.48
8039;BME280;4062;49.844;8.120;2023-04-01T01:44:33;97590.75;;;14.02;56.24
8039;BME280;4062;49.844;8.120;2023-04-01T01:46:39;97584.59;;;14.02;56.27
8039;BME280;4062;49.844;8.120;2023-04-01T01:48:44;97584.59;;;14.02;56.33
8039;BME280;4062;49.844;8.120;2023-04-01T01:50:49;97588.97;;;14.03;56.29
8039;BME280;4062;49.844;8.120;2023-04-01T01:53:07;97583.66;;;14.03;56.20
8039;BME280;4062;49.844;8.120;2023-04-01T01:55:30;97581.94;;;14.02;56.32
8039;BME280;4062;49.844;8.120;2023-04-01T01:57:36;97586.38;;;14.01;56.25
8039;BME280;4062;49.844;8.120;2023-04-01T01:59:46;97578.34;;;14.03;56.24
8039;BME280;4062;49.844;8.120;2023-04-01T02:01:57;97588.22;;;14.01;56.33
8039;BME280;4062;49.844;8.120;2023-04-01T02:04:00;97588.09;;;14.02;56.25
8039;BME280;4062;49.844;8.120;2023-04-01T02:06:07;97589.91;;;14.02;56.24
8039;BME280;4062;49.844;8.120;2023-04-01T02:08:20;97584.59;;;14.02;56.33
8039;BME280;4062;49.844;8.120;2023-04-01T02:10:27;97590.75;;;14.02;56.35
8039;BME280;4062;49.844;8.120;2023-04-01T02:12:30;97581.94;;;14.02;56.27
8039;BME280;4062;49.844;8.120;2023-04-01T02:17:15;97585.44;;;14.02;56.22
8039;BME280;4062;49.844;8.120;2023-04-01T02:19:19;97584.59;;;14.02;56.27
8039;BME280;4062;49.844;8.120;2023-04-01T02:21:30;97594.28;;;14.03;56.41
8039;BME280;4062;49.844;8.120;2023-04-01T02:23:35;97595.22;;;14.02;56.29
8039;BME280;4062;49.844;8.120;2023-04-01T02:25:50;97593.41;;;14.02;56.39
8039;BME280;4062;49.844;8.120;2023-04-01T02:28:17;97579.28;;;14.02;56.22
8039;BME280;4062;49.844;8.120;2023-04-01T02:30:29;97591.69;;;14.01;56.34
8039;BME280;4062;49.844;8.120;2023-04-01T02:32:34;97575.75;;;14.01;56.33
8039;BME280;4062;49.844;8.120;2023-04-01T02:34:47;97573.13;;;14.01;56.30
8039;BME280;4062;49.844;8.120;2023-04-01T02:36:58;97569.50;;;14.02;56.27
8039;BME280;4062;49.844;8.120;2023-04-01T02:39:01;97573.13;;;14.01;56.34
8039;BME280;4062;49.844;8.120;2023-04-01T02:41:08;97572.28;;;14.01;56.34
8039;BME280;4062;49.844;8.120;2023-04-01T02:43:13;97582.78;;;14.02;56.34
8039;BME280;4062;49.844;8.120;2023-04-01T02:45:14;97573.13;;;14.01;56.27
8039;BME280;4062;49.844;8.120;2023-04-01T02:47:17;97574.81;;;14.02;56.26
8039;BME280;4062;49.844;8.120;2023-04-01T02:49:24;97575.75;;;14.01;56.26
8039;BME280;4062;49.844;8.120;2023-04-01T02:51:27;97577.47;;;14.02;56.27
8039;BME280;4062;49.844;8.120;2023-04-01T02:53:28;97579.28;;;14.02;56.26
8039;BME280;4062;49.844;8.120;2023-04-01T02:55:42;97590.75;;;14.02;56.28
8039;BME280;4062;49.844;8.120;2023-04-01T02:57:46;97573.97;;;14.02;56.33
8039;BME280;4062;49.844;8.120;2023-04-01T02:59:56;97576.63;;;14.02;56.32
8039;BME280;4062;49.844;8.120;2023-04-01T03:02:00;97575.75;;;14.01;56.25
8039;BME280;4062;49.844;8.120;2023-04-01T03:04:01;97568.66;;;14.02;56.38
8039;BME280;4062;49.844;8.120;2023-04-01T03:06:08;97570.47;;;14.01;56.32
8039;BME280;4062;49.844;8.120;2023-04-01T03:08:10;97568.66;;;14.02;56.32
8039;BME280;4062;49.844;8.120;2023-04-01T03:10:13;97573.97;;;14.02;56.29
8039;BME280;4062;49.844;8.120;2023-04-01T03:12:24;97567.81;;;14.01;56.41
8039;BME280;4062;49.844;8.120;2023-04-01T03:14:26;97566.00;;;14.02;56.38
8039;BME280;4062;49.844;8.120;2023-04-01T03:16:28;97566.00;;;14.02;56.34
8039;BME280;4062;49.844;8.120;2023-04-01T03:18:30;97572.28;;;14.01;56.27
8039;BME280;4062;49.844;8.120;2023-04-01T03:20:32;97566.09;;;14.00;56.22
8039;BME280;4062;49.844;8.120;2023-04-01T03:22:34;97563.44;;;14.00;56.40
8039;BME280;4062;49.844;8.120;2023-04-01T03:24:36;97575.75;;;14.01;56.26
8039;BME280;4062;49.844;8.120;2023-04-01T03:26:38;97570.47;;;14.01;56.25
8039;BME280;4062;49.844;8.120;2023-04-01T03:28:40;97565.16;;;14.01;56.21
8039;BME280;4062;49.844;8.120;2023-04-01T03:30:41;97567.81;;;14.01;56.29
8039;BME280;4062;49.844;8.120;2023-04-01T03:32:44;97573.13;;;14.01;56.25
8039;BME280;4062;49.844;8.120;2023-04-01T03:34:51;97566.97;;;14.01;56.19
8039;BME280;4062;49.844;8.120;2023-04-01T03:36:53;97570.47;;;14.01;56.23
8039;BME280;4062;49.844;8.120;2023-04-01T03:38:56;97563.38;;;14.02;56.20
8039;BME280;4062;49.844;8.120;2023-04-01T03:41:15;97562.50;;;14.01;56.27
8039;BME280;4062;49.844;8.120;2023-04-01T03:43:16;97573.13;;;14.01;56.33
8039;BME280;4062;49.844;8.120;2023-04-01T03:45:18;97573.13;;;14.01;56.41
8039;BME280;4062;49.844;8.120;2023-04-01T03:47:19;97569.63;;;14.01;56.29
8039;BME280;4062;49.844;8.120;2023-04-01T03:49:21;97569.63;;;14.01;56.34
8039;BME280;4062;49.844;8.120;2023-04-01T03:51:24;97568.66;;;14.02;56.19
8039;BME280;4062;49.844;8.120;2023-04-01T03:53:28;97570.47;;;14.01;56.29
8039;BME280;4062;49.844;8.120;2023-04-01T03:55:35;97576.63;;;14.02;56.36
8039;BME280;4062;49.844;8.120;2023-04-01T03:57:37;97572.28;;;14.01;56.39
8039;BME280;4062;49.844;8.120;2023-04-01T03:59:52;97579.28;;;14.02;56.22
8039;BME280;4062;49.844;8.120;2023-04-01T04:01:53;97566.00;;;14.02;56.38
8039;BME280;4062;49.844;8.120;2023-04-01T04:03:57;97579.38;;;14.00;56.32
8039;BME280;4062;49.844;8.120;2023-04-01T04:05:58;97580.25;;;14.01;56.25
8039;BME280;4062;49.844;8.120;2023-04-01T04:08:00;97583.72;;;14.01;56.23
8039;BME280;4062;49.844;8.120;2023-04-01T04:10:02;97581.06;;;14.01;56.28
8039;BME280;4062;49.844;8.120;2023-04-01T04:12:05;97579.28;;;14.02;56.25
8039;BME280;4062;49.844;8.120;2023-04-01T04:14:11;97573.13;;;14.01;56.32
8039;BME280;4062;49.844;8.120;2023-04-01T04:16:13;97582.91;;;14.01;56.29
8039;BME280;4062;49.844;8.120;2023-04-01T04:18:20;97580.25;;;14.01;56.26
8039;BME280;4062;49.844;8.120;2023-04-01T04:20:25;97585.56;;;14.01;56.42
8039;BME280;4062;49.844;8.120;2023-04-01T04:22:27;97585.44;;;14.02;56.25
8039;BME280;4062;49.844;8.120;2023-04-01T04:24:31;97585.56;;;14.01;56.30
8039;BME280;4062;49.844;8.120;2023-04-01T04:26:42;97586.38;;;14.01;56.33
8039;BME280;4062;49.844;8.120;2023-04-01T04:28:44;97590.00;;;14.00;56.36
8039;BME280;4062;49.844;8.120;2023-04-01T04:30:48;97595.22;;;14.02;56.41
8039;BME280;4062;49.844;8.120;2023-04-01T04:32:50;97586.38;;;14.01;56.14
8039;BME280;4062;49.844;8.120;2023-04-01T04:34:53;97581.06;;;14.01;56.23
8039;BME280;4062;49.844;8.120;2023-04-01T04:36:57;97573.13;;;14.01;56.42
8039;BME280;4062;49.844;8.120;2023-04-01T04:39:05;97581.06;;;14.01;56.21
8039;BME280;4062;49.844;8.120;2023-04-01T04:41:10;97585.56;;;14.01;56.34
8039;BME280;4062;49.844;8.120;2023-04-01T04:43:20;97574.94;;;14.01;56.23
8039;BME280;4062;49.844;8.120;2023-04-01T04:45:24;97581.06;;;14.01;56.32
8039;BME280;4062;49.844;8.120;2023-04-01T04:47:29;97584.69;;;14.00;56.23
8039;BME280;4062;49.844;8.120;2023-04-01T04:49:33;97573.97;;;14.02;56.31
8039;BME280;4062;49.844;8.120;2023-04-01T04:51:40;97582.91;;;14.01;56.39
8039;BME280;4062;49.844;8.120;2023-04-01T04:53:43;97572.28;;;14.01;56.26
8039;BME280;4062;49.844;8.120;2023-04-01T04:55:51;97582.91;;;14.01;56.36
8039;BME280;4062;49.844;8.120;2023-04-01T04:58:15;97579.38;;;14.00;56.32
8039;BME280;4062;49.844;8.120;2023-04-01T05:00:19;97585.56;;;14.01;56.28
8039;BME280;4062;49.844;8.120;2023-04-01T05:02:37;97574.06;;;14.00;56.33
8039;BME280;4062;49.844;8.120;2023-04-01T05:04:48;97582.91;;;14.01;56.22
8039;BME280;4062;49.844;8.120;2023-04-01T05:06:53;97572.28;;;14.01;56.32
8039;BME280;4062;49.844;8.120;2023-04-01T05:09:01;97572.28;;;14.01;56.30
8039;BME280;4062;49.844;8.120;2023-04-01T05:11:03;97588.22;;;14.01;56.34
8039;BME280;4062;49.844;8.120;2023-04-01T05:13:11;97581.06;;;14.01;56.36
8039;BME280;4062;49.844;8.120;2023-04-01T05:15:15;97580.25;;;14.01;56.27
8039;BME280;4062;49.844;8.120;2023-04-01T05:17:23;97586.38;;;14.01;56.25
8039;BME280;4062;49.844;8.120;2023-04-01T05:19:25;97571.41;;;14.00;56.36
8039;BME280;4062;49.844;8.120;2023-04-01T05:21:26;97568.75;;;14.00;56.26
8039;BME280;4062;49.844;8.120;2023-04-01T05:23:34;97574.06;;;14.00;56.33
8039;BME280;4062;49.844;8.120;2023-04-01T05:25:39;97579.38;;;14.00;56.40
8039;BME280;4062;49.844;8.120;2023-04-01T05:27:41;97574.06;;;14.00;56.20
8039;BME280;4062;49.844;8.120;2023-04-01T05:29:43;97567.91;;;14.00;56.17
8039;BME280;4062;49.844;8.120;2023-04-01T05:32:00;97568.75;;;14.00;56.34
8039;BME280;4062;49.844;8.120;2023-04-01T05:34:03;97581.94;;;14.02;56.20
8039;BME280;4062;49.844;8.120;2023-04-01T05:36:13;97569.63;;;14.01;56.40
8039;BME280;4062;49.844;8.120;2023-04-01T05:38:16;97569.63;;;14.01;56.27
8039;BME280;4062;49.844;8.120;2023-04-01T05:40:17;97579.38;;;14.00;56.23
8039;BME280;4062;49.844;8.120;2023-04-01T05:42:19;97572.28;;;14.01;56.38
8039;BME280;4062;49.844;8.120;2023-04-01T05:44:21;97567.81;;;14.01;56.39
8039;BME280;4062;49.844;8.120;2023-04-01T05:46:38;97563.44;;;14.00;56.32
8039;BME280;4062;49.844;8.120;2023-04-01T05:49:07;97572.28;;;14.01;56.34
8039;BME280;4062;49.844;8.120;2023-04-01T05:51:15;97567.81;;;14.01;56.33
8039;BME280;4062;49.844;8.120;2023-04-01T05:53:16;97573.97;;;14.02;56.33
8039;BME280;4062;49.844;8.120;2023-04-01T05:55:19;97568.66;;;14.02;56.24
8039;BME280;4062;49.844;8.120;2023-04-01T05:57:28;97561.66;;;14.01;56.34
8039;BME280;4062;49.844;8.120;2023-04-01T05:59:35;97567.81;;;14.01;56.27
8039;BME280;4062;49.844;8.120;2023-04-01T06:01:42;97559.84;;;14.01;56.30
8039;BME280;4062;49.844;8.120;2023-04-01T06:03:44;97562.50;;;14.01;56.33
8039;BME280;4062;49.844;8.120;2023-04-01T06:05:46;97563.44;;;14.00;56.41
8039;BME280;4062;49.844;8.120;2023-04-01T06:07:48;97565.16;;;14.01;56.38
8039;BME280;4062;49.844;8.120;2023-04-01T06:09:49;97568.66;;;14.02;56.25
8039;BME280;4062;49.844;8.120;2023-04-01T06:14:30;97568.66;;;14.02;56.25
8039;BME280;4062;49.844;8.120;2023-04-01T06:17:20;97565.16;;;14.01;56.23
8039;BME280;4062;49.844;8.120;2023-04-01T06:22:20;97563.38;;;14.02;56.36
8039;BME280;4062;49.844;8.120;2023-04-01T06:27:28;97571.31;;;14.02;56.25
8039;BME280;4062;49.844;8.120;2023-04-01T06:32:22;97573.13;;;14.01;56.36
8039;BME280;4062;49.844;8.120;2023-04-01T06:42:07;97577.47;;;14.02;56.25
8039;BME280;4062;49.844;8.120;2023-04-01T06:56:17;97572.16;;;14.02;56.25
8039;BME280;4062;49.844;8.120;2023-04-01T07:01:06;97568.56;;;14.03;56.37
8039;BME280;4062;49.844;8.120;2023-04-01T07:03:22;97577.38;;;14.04;56.26
8039;BME280;4062;49.844;8.120;2023-04-01T07:05:34;97570.25;;;14.04;56.24
8039;BME280;4062;49.844;8.120;2023-04-01T07:07:46;97567.72;;;14.03;56.29
8039;BME280;4062;49.844;8.120;2023-04-01T07:09:52;97570.25;;;14.04;56.12
8039;BME280;4062;49.844;8.120;2023-04-01T07:14:58;97573.88;;;14.03;56.31
8039;BME280;4062;49.844;8.120;2023-04-01T07:17:27;97570.38;;;14.03;56.37
8039;BME280;4062;49.844;8.120;2023-04-01T07:19:32;97575.56;;;14.04;56.16
8039;BME280;4062;49.844;8.120;2023-04-01T07:21:43;97569.44;;;14.04;56.36
8039;BME280;4062;49.844;8.120;2023-04-01T07:24:00;97571.22;;;14.03;56.30
8039;BME280;4062;49.844;8.120;2023-04-01T07:26:19;97580.88;;;14.04;56.32
8039;BME280;4062;49.844;8.120;2023-04-01T07:28:40;97574.72;;;14.04;56.20
8039;BME280;4062;49.844;8.120;2023-04-01T07:31:25;97584.50;;;14.03;56.25
8039;BME280;4062;49.844;8.120;2023-04-01T07:34:07;97574.72;;;14.04;56.19
8039;BME280;4062;49.844;8.120;2023-04-01T07:36:36;97576.53;;;14.03;56.25
8039;BME280;4062;49.844;8.120;2023-04-01T07:44:22;97589.69;;;14.05;56.43
8039;BME280;4062;49.844;8.120;2023-04-01T07:53:13;97599.47;;;14.04;56.25
8039;BME280;4062;49.844;8.120;2023-04-01T07:55:27;97602.13;;;14.04;56.23
8039;BME280;4062;49.844;8.120;2023-04-01T07:57:55;97595.09;;;14.03;56.31
8039;BME280;4062;49.844;8.120;2023-04-01T08:00:15;97604.78;;;14.04;56.24
8039;BME280;4062;49.844;8.120;2023-04-01T08:07:13;97607.44;;;14.04;56.26
8039;BME280;4062;49.844;8.120;2023-04-01T08:09:33;97610.09;;;14.04;56.27
8039;BME280;4062;49.844;8.120;2023-04-01T08:12:27;97608.38;;;14.03;56.26
8039;BME280;4062;49.844;8.120;2023-04-01T08:21:51;97613.59;;;14.05;56.31
8039;BME280;4062;49.844;8.120;2023-04-01T08:23:57;97620.72;;;14.04;56.31
8039;BME280;4062;49.844;8.120;2023-04-01T08:28:43;97624.22;;;14.05;56.22
8039;BME280;4062;49.844;8.120;2023-04-01T08:30:56;97620.72;;;14.04;56.32
8039;BME280;4062;49.844;8.120;2023-04-01T08:33:19;97626.84;;;14.05;56.31
8039;BME280;4062;49.844;8.120;2023-04-01T08:37:39;97628.69;;;14.04;56.18
8039;BME280;4062;49.844;8.120;2023-04-01T08:39:45;97626.97;;;14.03;56.20
8039;BME280;4062;49.844;8.120;2023-04-01T09:00:22;97633.16;;;14.04;56.25
8039;BME280;4062;49.844;8.120;2023-04-01T09:17:43;97643.66;;;14.05;56.25
8039;BME280;4062;49.844;8.120;2023-04-01T09:19:56;97640.13;;;14.05;56.22
8039;BME280;4062;49.844;8.120;2023-04-01T09:25:01;97646.31;;;14.05;56.17
8039;BME280;4062;49.844;8.120;2023-04-01T09:27:05;97654.28;;;14.05;56.31
8039;BME280;4062;49.844;8.120;2023-04-01T09:29:25;97654.28;;;14.05;56.16
8039;BME280;4062;49.844;8.120;2023-04-01T09:37:09;97664.91;;;14.05;56.17
8039;BME280;4062;49.844;8.120;2023-04-01T09:41:57;97667.56;;;14.05;56.23
8039;BME280;4062;49.844;8.120;2023-04-01T09:44:37;97667.56;;;14.05;56.28
8039;BME280;4062;49.844;8.120;2023-04-01T10:08:22;97682.53;;;14.06;56.23
8039;BME280;4062;49.844;8.120;2023-04-01T10:10:57;97677.22;;;14.06;56.16
8039;BME280;4062;49.844;8.120;2023-04-01T10:16:21;97682.53;;;14.06;56.08
8039;BME280;4062;49.844;8.120;2023-04-01T10:18:53;97687.84;;;14.06;56.23
8039;BME280;4062;49.844;8.120;2023-04-01T10:21:33;97683.38;;;14.07;56.24
8039;BME280;4062;49.844;8.120;2023-04-01T10:26:21;97685.19;;;14.06;56.23
8039;BME280;4062;49.844;8.120;2023-04-01T10:33:51;97696.66;;;14.07;56.27
8039;BME280;4062;49.844;8.120;2023-04-01T10:36:31;97699.31;;;14.07;56.43
8039;BME280;4062;49.844;8.120;2023-04-01T10:41:46;97706.44;;;14.06;56.16
8039;BME280;4062;49.844;8.120;2023-04-01T10:55:43;97698.47;;;14.06;56.30
8039;BME280;4062;49.844;8.120;2023-04-01T11:07:30;97702.84;;;14.07;56.23
8039;BME280;4062;49.844;8.120;2023-04-01T11:17:26;97716.13;;;14.07;56.24
8039;BME280;4062;49.844;8.120;2023-04-01T11:27:55;97701.97;;;14.07;56.22
8039;BME280;4062;49.844;8.120;2023-04-01T11:30:11;97709.94;;;14.07;56.36
8039;BME280;4062;49.844;8.120;2023-04-01T11:35:00;97712.59;;;14.07;56.37
8039;BME280;4062;49.844;8.120;2023-04-01T11:45:42;97714.31;;;14.08;56.31
8039;BME280;4062;49.844;8.120;2023-04-01T11:52:55;97721.31;;;14.09;56.22
8039;BME280;4062;49.844;8.120;2023-04-01T11:55:38;97722.28;;;14.08;56.24
8039;BME280;4062;49.844;8.120;2023-04-01T12:00:19;97726.75;;;14.07;56.23
8039;BME280;4062;49.844;8.120;2023-04-01T12:10:26;97747.03;;;14.09;56.13
8039;BME280;4062;49.844;8.120;2023-04-01T12:12:36;97739.06;;;14.09;56.24
8039;BME280;4062;49.844;8.120;2023-04-01T12:14:48;97741.72;;;14.09;56.18
8039;BME280;4062;49.844;8.120;2023-04-01T12:17:20;97750.53;;;14.09;56.36
8039;BME280;4062;49.844;8.120;2023-04-01T12:22:10;97755.00;;;14.09;56.29
8039;BME280;4062;49.844;8.120;2023-04-01T12:24:47;97757.66;;;14.09;56.17
8039;BME280;4062;49.844;8.120;2023-04-01T12:31:34;97752.34;;;14.09;56.29
8039;BME280;4062;49.844;8.120;2023-04-01T12:36:25;97765.63;;;14.09;56.23
8039;BME280;4062;49.844;8.120;2023-04-01T12:41:46;97770.06;;;14.08;56.20
8039;BME280;4062;49.844;8.120;2023-04-01T12:46:33;97776.25;;;14.09;56.27
8039;BME280;4062;49.844;8.120;2023-04-01T12:53:41;97768.28;;;14.09;56.25
8039;BME280;4062;49.844;8.120;2023-04-01T12:55:45;97773.59;;;14.09;56.29
8039;BME280;4062;49.844;8.120;2023-04-01T13:00:46;97776.25;;;14.09;56.34
8039;BME280;4062;49.844;8.120;2023-04-01T13:08:21;97773.59;;;14.09;56.25
8039;BME280;4062;49.844;8.120;2023-04-01T13:20:59;97770.06;;;14.08;56.24
8039;BME280;4062;49.844;8.120;2023-04-01T13:23:14;97778.91;;;14.09;56.22
8039;BME280;4062;49.844;8.120;2023-04-01T13:28:01;97776.25;;;14.09;56.28
8039;BME280;4062;49.844;8.120;2023-04-01T13:35:25;97778.91;;;14.09;56.28
8039;BME280;4062;49.844;8.120;2023-04-01T13:37:52;97780.69;;;14.08;56.30
8039;BME280;4062;49.844;8.120;2023-04-01T13:42:45;97787.72;;;14.09;56.23
8039;BME280;4062;49.844;8.120;2023-04-01T13:46:06;97784.22;;;14.09;56.29
8039;BME280;4062;49.844;8.120;2023-04-01T13:48:30;97787.72;;;14.09;56.39
8039;BME280;4062;49.844;8.120;2023-04-01T13:50:49;97793.03;;;14.09;56.28
8039;BME280;4062;49.844;8.120;2023-04-01T13:58:17;97786.00;;;14.08;56.18
8039;BME280;4062;49.844;8.120;2023-04-01T14:03:37;97794.84;;;14.09;56.25
8039;BME280;4062;49.844;8.120;2023-04-01T14:06:09;97793.97;;;14.08;56.24
8039;BME280;4062;49.844;8.120;2023-04-01T14:13:27;97801.00;;;14.09;56.23
8039;BME280;4062;49.844;8.120;2023-04-01T14:15:48;97800.16;;;14.09;56.22
8039;BME280;4062;49.844;8.120;2023-04-01T14:18:09;97811.63;;;14.09;56.33
8039;BME280;4062;49.844;8.120;2023-04-01T14:20:30;97810.78;;;14.09;56.21
8039;BME280;4062;49.844;8.120;2023-04-01T14:22:58;97808.13;;;14.09;56.33
8039;BME280;4062;49.844;8.120;2023-04-01T14:37:14;97814.25;;;14.09;56.34
8039;BME280;4062;49.844;8.120;2023-04-01T14:41:45;97816.09;;;14.09;56.20
8039;BME280;4062;49.844;8.120;2023-04-01T14:49:02;97830.19;;;14.09;56.22
8039;BME280;4062;49.844;8.120;2023-04-01T14:55:36;97833.69;;;14.10;56.20
8039;BME280;4062;49.844;8.120;2023-04-01T15:00:19;97832.84;;;14.09;56.16
8039;BME280;4062;49.844;8.120;2023-04-01T15:12:46;97840.81;;;14.09;56.20
8039;BME280;4062;49.844;8.120;2023-04-01T15:24:34;97857.59;;;14.10;56.30
8039;BME280;4062;49.844;8.120;2023-04-01T15:29:34;97874.50;;;14.09;56.34
8039;BME280;4062;49.844;8.120;2023-04-01T15:31:42;97869.19;;;14.09;56.20
8039;BME280;4062;49.844;8.120;2023-04-01T15:38:31;97871.84;;;14.09;56.35
8039;BME280;4062;49.844;8.120;2023-04-01T15:40:53;97870.97;;;14.08;56.41
8039;BME280;4062;49.844;8.120;2023-04-01T15:47:28;97891.28;;;14.09;56.36
8039;BME280;4062;49.844;8.120;2023-04-01T15:49:44;97879.81;;;14.09;56.28
8039;BME280;4062;49.844;8.120;2023-04-01T15:54:23;97891.28;;;14.09;56.15
8039;BME280;4062;49.844;8.120;2023-04-01T15:57:14;97891.28;;;14.09;56.31
8039;BME280;4062;49.844;8.120;2023-04-01T16:01:32;97891.28;;;14.09;56.50
8039;BME280;4062;49.844;8.120;2023-04-01T16:03:46;97900.09;;;14.10;56.26
8039;BME280;4062;49.844;8.120;2023-04-01T16:13:29;97909.03;;;14.09;56.38
8039;BME280;4062;49.844;8.120;2023-04-01T16:21:24;97914.34;;;14.09;56.27
8039;BME280;4062;49.844;8.120;2023-04-01T16:26:09;97924.09;;;14.08;56.29
8039;BME280;4062;49.844;8.120;2023-04-01T16:33:22;97937.38;;;14.08;56.46
8039;BME280;4062;49.844;8.120;2023-04-01T16:35:46;97940.03;;;14.08;56.27
8039;BME280;4062;49.844;8.120;2023-04-01T16:38:22;97932.94;;;14.09;56.30
8039;BME280;4062;49.844;8.120;2023-04-01T16:40:40;97938.31;;;14.07;56.25
8039;BME280;4062;49.844;8.120;2023-04-01T16:45:31;97946.28;;;14.07;56.41
8039;BME280;4062;49.844;8.120;2023-04-01T16:47:55;97946.22;;;14.09;56.29
8039;BME280;4062;49.844;8.120;2023-04-01T16:55:12;97949.81;;;14.07;56.36
8039;BME280;4062;49.844;8.120;2023-04-01T16:57:20;97952.47;;;14.07;56.28
8039;BME280;4062;49.844;8.120;2023-04-01T16:59:37;97958.63;;;14.08;56.33
8039;BME280;4062;49.844;8.120;2023-04-01T17:06:49;97961.28;;;14.08;56.35
8039;BME280;4062;49.844;8.120;2023-04-01T17:09:12;97966.59;;;14.08;56.27
8039;BME280;4062;49.844;8.120;2023-04-01T17:11:31;97973.72;;;14.07;56.46
8039;BME280;4062;49.844;8.120;2023-04-01T17:18:47;97974.66;;;14.06;56.30
8039;BME280;4062;49.844;8.120;2023-04-01T17:23:34;97975.44;;;14.09;56.41
8039;BME280;4062;49.844;8.120;2023-04-01T17:26:02;97977.22;;;14.08;56.40
8039;BME280;4062;49.844;8.120;2023-04-01T17:28:20;97983.47;;;14.07;56.42
8039;BME280;4062;49.844;8.120;2023-04-01T17:33:13;97993.16;;;14.08;56.35
8039;BME280;4062;49.844;8.120;2023-04-01T17:38:24;97995.81;;;14.08;56.43
8039;BME280;4062;49.844;8.120;2023-04-01T17:52:16;98016.22;;;14.07;56.35
8039;BME280;4062;49.844;8.120;2023-04-01T17:57:21;98025.00;;;14.08;56.34
8039;BME280;4062;49.844;8.120;2023-04-01T18:09:20;98041.91;;;14.07;56.24
8039;BME280;4062;49.844;8.120;2023-04-01T18:11:45;98050.72;;;14.07;56.38
8039;BME280;4062;49.844;8.120;2023-04-01T18:14:27;98049.88;;;14.07;56.38
8039;BME280;4062;49.844;8.120;2023-04-01T18:24:35;98064.00;;;14.07;56.42
8039;BME280;4062;49.844;8.120;2023-04-01T18:26:45;98067.63;;;14.06;56.38
8039;BME280;4062;49.844;8.120;2023-04-01T18:31:34;98076.41;;;14.07;56.32
8039;BME280;4062;49.844;8.120;2023-04-01T18:34:06;98088.84;;;14.06;56.36
8039;BME280;4062;49.844;8.120;2023-04-01T18:39:22;98087.03;;;14.07;56.36
8039;BME280;4062;49.844;8.120;2023-04-01T18:41:42;98088.84;;;14.06;56.42
8039;BME280;4062;49.844;8.120;2023-04-01T18:44:07;98098.53;;;14.07;56.33
8039;BME280;4062;49.844;8.120;2023-04-01T18:46:51;98095.00;;;14.07;56.43
8039;BME280;4062;49.844;8.120;2023-04-01T18:49:07;98100.31;;;14.07;56.29
8039;BME280;4062;49.844;8.120;2023-04-01T18:51:13;98105.63;;;14.07;56.47
8039;BME280;4062;49.844;8.120;2023-04-01T18:53:41;98110.09;;;14.06;56.29
8039;BME280;4062;49.844;8.120;2023-04-01T18:55:57;98110.94;;;14.07;56.43
8039;BME280;4062;49.844;8.120;2023-04-01T18:58:22;98116.25;;;14.07;56.36
8039;BME280;4062;49.844;8.120;2023-04-01T19:00:32;98114.47;;;14.07;56.36
8039;BME280;4062;49.844;8.120;2023-04-01T19:02:58;98121.56;;;14.07;56.34
8039;BME280;4062;49.844;8.120;2023-04-01T19:05:18;98124.22;;;14.07;56.39
8039;BME280;4062;49.844;8.120;2023-04-01T19:07:53;98135.72;;;14.07;56.36
8039;BME280;4062;49.844;8.120;2023-04-01T19:10:01;98128.69;;;14.06;56.30
8039;BME280;4062;49.844;8.120;2023-04-01T19:14:30;98140.16;;;14.07;56.30
8039;BME280;4062;49.844;8.120;2023-04-01T19:26:09;98144.63;;;14.06;56.41